Time;durP1;ratioP1;P1;durP2;ratioP2;P2;SDS_P1;SDS_P2;PMS_P1;PMS_P2;Temp;Humidity;BMP_temperature;BMP_pressure;BME280_temperature;BME280_humidity;BME280_pressure;Samples;Min_cycle;Max_cycle;Signal;HPM_P1;HPM_P2
2021/05/02 00:00:29;;;;;;;23.42;18.67;;;3.70;99.90;;;;;;5065515;28;20040;-74
2021/05/02 00:02:57;;;;;;;26.92;18.80;;;3.70;99.90;;;;;;5066183;28;20068;-74
2021/05/02 00:05:26;;;;;;;25.23;18.63;;;3.90;99.90;;;;;;5065548;28;20102;-74
2021/05/02 00:07:52;;;;;;;29.10;20.33;;;3.80;99.90;;;;;;5047016;28;20060;-74
2021/05/02 00:10:20;;;;;;;24.92;18.67;;;3.80;99.90;;;;;;5065421;28;20052;-74
2021/05/02 00:12:47;;;;;;;26.60;19.80;;;3.70;99.90;;;;;;5048356;28;20253;-74
2021/05/02 00:15:17;;;;;;;28.70;19.73;;;3.80;99.90;;;;;;5064040;28;20135;-73
2021/05/02 00:17:45;;;;;;;29.73;19.95;;;3.80;99.90;;;;;;5048182;28;20476;-74
2021/05/02 00:20:14;;;;;;;28.65;20.38;;;3.90;99.90;;;;;;5054181;28;20123;-74
2021/05/02 00:22:49;;;;;;;31.67;20.70;;;4.00;99.90;;;;;;5066997;28;20052;-74
2021/05/02 00:25:19;;;;;;;25.27;20.40;;;4.10;99.90;;;;;;5084601;28;20074;-74
2021/05/02 00:27:47;;;;;;;26.33;18.95;;;4.10;99.90;;;;;;5067945;28;20093;-73
2021/05/02 00:30:19;;;;;;;28.30;20.40;;;4.00;99.90;;;;;;5066300;28;20098;-74
2021/05/02 00:32:47;;;;;;;30.60;20.83;;;3.80;99.90;;;;;;5066052;28;20048;-74
2021/05/02 00:35:16;;;;;;;26.80;17.90;;;3.70;99.90;;;;;;5068085;28;20440;-74
2021/05/02 00:37:43;;;;;;;24.20;18.83;;;3.70;99.90;;;;;;5068336;28;20044;-74
2021/05/02 00:40:16;;;;;;;24.42;18.92;;;3.60;99.90;;;;;;5050823;28;20059;-74
2021/05/02 00:42:49;;;;;;;27.25;19.17;;;3.70;99.90;;;;;;5077072;28;20048;-74
2021/05/02 00:45:24;;;;;;;27.20;19.10;;;3.70;99.90;;;;;;5064389;28;20122;-74
2021/05/02 00:48:03;;;;;;;27.02;18.83;;;3.70;99.90;;;;;;5068957;28;20049;-74
2021/05/02 00:50:35;;;;;;;27.00;19.80;;;3.60;99.90;;;;;;5049539;28;20493;-73
2021/05/02 00:53:01;;;;;;;31.70;20.25;;;3.70;99.90;;;;;;5069303;28;20052;-73
2021/05/02 00:55:37;;;;;;;30.15;19.58;;;3.80;99.90;;;;;;5050920;28;20052;-74
2021/05/02 00:58:08;;;;;;;26.30;18.75;;;3.80;99.90;;;;;;5069148;28;20041;-74
2021/05/02 01:00:38;;;;;;;24.15;18.58;;;3.80;99.90;;;;;;5017346;28;20045;-74
2021/05/02 01:03:07;;;;;;;26.70;18.73;;;3.70;99.90;;;;;;5050757;28;20048;-74
2021/05/02 01:05:34;;;;;;;24.67;18.63;;;3.70;99.90;;;;;;5086842;28;20048;-74
2021/05/02 01:08:03;;;;;;;24.27;17.88;;;3.70;99.90;;;;;;5069529;28;20083;-74
2021/05/02 01:10:31;;;;;;;22.85;18.77;;;3.60;99.90;;;;;;5088377;28;20131;-74
2021/05/02 01:13:03;;;;;;;26.85;19.58;;;3.60;99.90;;;;;;5084474;28;20061;-74
2021/05/02 01:15:34;;;;;;;28.73;20.48;;;3.70;99.90;;;;;;5051709;28;20139;-73
2021/05/02 01:18:11;;;;;;;31.40;20.88;;;3.90;99.90;;;;;;5034436;28;20044;-74
2021/05/02 01:20:41;;;;;;;31.05;20.65;;;3.90;99.90;;;;;;5049400;28;20044;-74
2021/05/02 01:23:10;;;;;;;30.60;21.95;;;3.80;99.90;;;;;;5032129;28;20049;-74
2021/05/02 01:25:37;;;;;;;37.20;21.67;;;3.90;99.90;;;;;;5050349;28;20287;-74
2021/05/02 01:28:04;;;;;;;33.78;22.75;;;3.90;99.90;;;;;;5068606;28;20068;-74
2021/05/02 01:30:31;;;;;;;31.45;22.45;;;3.90;99.90;;;;;;5070812;28;20071;-74
2021/05/02 01:32:57;;;;;;;34.58;21.60;;;4.00;99.90;;;;;;5051220;28;20049;-74
2021/05/02 01:35:24;;;;;;;34.58;23.35;;;4.00;99.90;;;;;;5085247;28;20353;-74
2021/05/02 01:37:51;;;;;;;36.88;23.83;;;4.10;99.90;;;;;;5049560;28;20182;-74
2021/05/02 01:40:19;;;;;;;37.05;22.75;;;4.20;99.90;;;;;;5049184;28;20040;-73
2021/05/02 01:42:46;;;;;;;35.95;23.70;;;4.10;99.90;;;;;;5075145;28;20431;-74
2021/05/02 01:45:13;;;;;;;38.30;24.70;;;4.00;99.90;;;;;;5051169;28;20032;-73
2021/05/02 01:47:48;;;;;;;36.92;24.08;;;4.10;99.90;;;;;;5074460;28;20100;-73
2021/05/02 01:50:15;;;;;;;39.80;25.45;;;4.10;99.90;;;;;;5047218;28;20145;-74
2021/05/02 01:52:51;;;;;;;37.15;25.02;;;4.20;99.90;;;;;;5024473;28;20800;-74
2021/05/02 01:55:17;;;;;;;34.77;23.87;;;4.20;99.90;;;;;;5043616;28;20071;-74
2021/05/02 01:57:47;;;;;;;37.95;25.73;;;4.20;99.90;;;;;;5034253;28;20663;-74
2021/05/02 02:00:29;;;;;;;36.78;25.17;;;4.20;99.90;;;;;;5067268;28;20465;-74
2021/05/02 02:03:00;;;;;;;40.05;26.95;;;4.10;99.90;;;;;;5065339;28;20549;-74
2021/05/02 02:05:30;;;;;;;43.38;27.25;;;4.10;99.90;;;;;;5033239;28;20084;-74
2021/05/02 02:08:00;;;;;;;34.05;24.50;;;4.20;99.90;;;;;;5066283;28;20140;-74
2021/05/02 02:10:27;;;;;;;41.45;26.35;;;4.20;99.90;;;;;;5049405;28;20497;-74
2021/05/02 02:12:54;;;;;;;39.95;26.70;;;4.20;99.90;;;;;;5047884;28;20059;-73
2021/05/02 02:15:20;;;;;;;39.60;26.80;;;4.20;99.90;;;;;;5066483;28;20056;-74
2021/05/02 02:17:46;;;;;;;45.53;28.45;;;4.30;99.90;;;;;;5049061;28;20044;-74
2021/05/02 02:20:14;;;;;;;43.53;28.20;;;4.20;99.90;;;;;;5081890;28;20055;-74
2021/05/02 02:22:42;;;;;;;37.53;24.65;;;4.20;99.90;;;;;;5085990;28;20059;-74
2021/05/02 02:25:10;;;;;;;43.55;27.67;;;4.20;99.90;;;;;;5062484;28;20123;-74
2021/05/02 02:27:38;;;;;;;45.05;27.02;;;4.20;99.90;;;;;;5066442;28;20621;-74
2021/05/02 02:30:07;;;;;;;48.00;28.65;;;4.20;99.90;;;;;;5066625;28;20059;-74
2021/05/02 02:32:36;;;;;;;50.03;30.48;;;4.20;99.90;;;;;;5049152;28;20098;-74
2021/05/02 02:35:04;;;;;;;51.58;29.27;;;4.20;99.90;;;;;;5067284;28;20049;-74
2021/05/02 02:37:31;;;;;;;52.92;32.53;;;4.20;99.90;;;;;;5066210;28;20059;-73
2021/05/02 02:39:59;;;;;;;50.75;30.85;;;4.20;99.90;;;;;;5067404;28;20677;-74
2021/05/02 02:42:27;;;;;;;51.60;32.40;;;4.30;99.90;;;;;;5060075;28;20121;-74
2021/05/02 02:44:59;;;;;;;52.95;31.95;;;4.30;99.90;;;;;;5067076;28;20155;-74
2021/05/02 02:47:46;;;;;;;55.58;33.08;;;4.30;99.90;;;;;;5048455;28;20049;-73
2021/05/02 02:50:16;;;;;;;53.95;32.72;;;4.30;99.90;;;;;;5046332;28;20138;-74
2021/05/02 02:52:52;;;;;;;54.15;31.27;;;4.30;99.90;;;;;;5086507;28;20052;-73
2021/05/02 02:55:21;;;;;;;52.25;31.40;;;4.30;99.90;;;;;;5085711;28;20051;-73
2021/05/02 02:57:57;;;;;;;53.55;32.10;;;4.40;99.90;;;;;;5076784;28;20185;-73
2021/05/02 03:00:26;;;;;;;54.72;32.90;;;4.50;99.90;;;;;;5064305;28;20383;-73
2021/05/02 03:03:09;;;;;;;49.88;31.25;;;4.50;99.90;;;;;;5015126;28;20059;-73
2021/05/02 03:05:40;;;;;;;58.38;33.30;;;4.60;99.90;;;;;;5047008;28;20106;-73
2021/05/02 03:08:08;;;;;;;51.28;32.10;;;4.70;99.90;;;;;;5058065;28;20143;-74
2021/05/02 03:10:39;;;;;;;59.85;34.60;;;4.70;99.90;;;;;;5085623;28;20102;-73
2021/05/02 03:13:05;;;;;;;56.33;33.75;;;4.70;99.90;;;;;;5078615;28;20072;-73
2021/05/02 03:15:32;;;;;;;59.92;33.65;;;4.80;99.90;;;;;;5065093;28;20045;-74
2021/05/02 03:18:07;;;;;;;55.50;32.42;;;4.80;99.90;;;;;;5065571;28;20044;-73
2021/05/02 03:20:36;;;;;;;54.28;33.65;;;4.80;99.90;;;;;;5030972;28;20097;-73
2021/05/02 03:23:06;;;;;;;53.92;31.42;;;4.80;99.90;;;;;;5046809;28;20056;-73
2021/05/02 03:25:35;;;;;;;57.88;33.35;;;4.80;99.90;;;;;;5047762;28;20040;-73
2021/05/02 03:28:19;;;;;;;55.03;32.15;;;4.90;99.90;;;;;;5066753;28;20505;-73
2021/05/02 03:30:46;;;;;;;56.10;33.10;;;4.90;99.90;;;;;;5044999;28;20070;-73
2021/05/02 03:33:15;;;;;;;53.42;32.65;;;5.00;99.90;;;;;;5070093;28;20048;-73
2021/05/02 03:35:47;;;;;;;54.65;32.83;;;5.10;99.90;;;;;;5083367;28;20139;-73
2021/05/02 03:38:39;;;;;;;58.70;35.08;;;5.10;99.90;;;;;;5065032;28;20131;-73
2021/05/02 03:41:06;;;;;;;66.70;36.35;;;5.10;99.90;;;;;;5064785;28;20140;-73
2021/05/02 03:43:32;;;;;;;64.30;37.00;;;5.10;99.90;;;;;;5077307;28;20366;-73
2021/05/02 03:45:58;;;;;;;67.88;38.53;;;5.10;99.90;;;;;;5062190;28;20076;-73
2021/05/02 03:48:25;;;;;;;63.10;37.00;;;5.10;99.90;;;;;;5061388;28;20080;-73
2021/05/02 03:50:52;;;;;;;64.32;38.08;;;5.20;99.90;;;;;;5067464;28;20496;-73
2021/05/02 03:53:18;;;;;;;70.28;38.35;;;5.20;99.90;;;;;;5085258;28;20052;-73
2021/05/02 03:55:46;;;;;;;72.28;38.72;;;5.20;99.90;;;;;;5066737;28;20720;-73
2021/05/02 03:58:17;;;;;;;78.25;41.50;;;5.20;99.90;;;;;;5056033;28;20080;-73
2021/05/02 04:00:44;;;;;;;76.72;39.85;;;5.30;99.90;;;;;;5060041;28;20043;-73
2021/05/02 04:03:14;;;;;;;72.90;40.20;;;5.20;99.90;;;;;;5059385;28;20061;-73
2021/05/02 04:05:44;;;;;;;73.57;40.95;;;5.10;99.90;;;;;;5069342;28;20048;-73
2021/05/02 04:08:10;;;;;;;78.07;42.10;;;5.20;99.90;;;;;;5066784;28;20064;-73
2021/05/02 04:10:37;;;;;;;73.88;39.10;;;5.20;99.90;;;;;;5089408;28;20040;-73
2021/05/02 04:13:03;;;;;;;73.88;40.28;;;5.20;99.90;;;;;;5089806;28;20155;-73
2021/05/02 04:15:29;;;;;;;71.30;40.10;;;5.20;99.90;;;;;;5072307;28;20451;-73
2021/05/02 04:17:56;;;;;;;77.70;42.83;;;5.20;99.90;;;;;;5069435;28;20143;-73
2021/05/02 04:20:22;;;;;;;73.28;40.72;;;5.20;99.90;;;;;;5069267;28;20063;-73
2021/05/02 04:22:49;;;;;;;74.75;42.22;;;5.30;99.90;;;;;;5066621;28;20143;-73
2021/05/02 04:25:15;;;;;;;79.35;41.53;;;5.30;99.90;;;;;;5074245;28;20238;-73
2021/05/02 04:27:42;;;;;;;76.95;41.70;;;5.40;99.90;;;;;;5070171;28;20143;-73
2021/05/02 04:30:09;;;;;;;75.18;42.45;;;5.40;99.90;;;;;;5050179;28;20083;-73
2021/05/02 04:32:35;;;;;;;76.90;41.13;;;5.40;99.90;;;;;;5052440;28;20431;-73
2021/05/02 04:35:02;;;;;;;78.32;41.95;;;5.40;99.90;;;;;;5067933;28;20102;-74
2021/05/02 04:37:28;;;;;;;84.25;43.80;;;5.50;99.90;;;;;;5050239;28;20289;-74
2021/05/02 04:39:55;;;;;;;76.47;41.33;;;5.40;99.90;;;;;;5068935;28;20056;-74
2021/05/02 04:42:21;;;;;;;82.53;42.42;;;5.30;99.90;;;;;;5056333;28;20485;-74
2021/05/02 04:44:47;;;;;;;86.75;44.85;;;5.20;99.90;;;;;;5077993;28;20053;-74
2021/05/02 04:47:19;;;;;;;79.13;43.10;;;5.20;99.90;;;;;;5065400;28;20094;-74
2021/05/02 04:49:47;;;;;;;80.35;41.45;;;5.20;99.90;;;;;;5056907;28;20501;-74
2021/05/02 04:52:14;;;;;;;90.50;46.17;;;5.20;99.90;;;;;;5067705;28;20147;-74
2021/05/02 04:54:41;;;;;;;86.28;42.10;;;5.10;99.90;;;;;;5050945;28;20080;-74
2021/05/02 04:57:07;;;;;;;84.45;44.65;;;5.00;99.90;;;;;;5068743;28;20052;-74
2021/05/02 04:59:35;;;;;;;86.72;45.08;;;5.00;99.90;;;;;;5068031;28;20521;-74
2021/05/02 05:02:03;;;;;;;84.70;43.95;;;5.00;99.90;;;;;;5049280;28;20155;-74
2021/05/02 05:04:29;;;;;;;82.95;42.33;;;4.90;99.90;;;;;;5050631;28;20452;-74
2021/05/02 05:06:56;;;;;;;82.80;40.95;;;4.90;99.90;;;;;;5071493;28;20504;-74
2021/05/02 05:09:23;;;;;;;79.10;42.65;;;5.00;99.90;;;;;;5050449;28;20106;-74
2021/05/02 05:11:49;;;;;;;80.90;43.55;;;5.00;99.90;;;;;;5071345;28;20057;-74
2021/05/02 05:14:15;;;;;;;76.38;41.63;;;5.00;99.90;;;;;;5060909;28;20051;-74
2021/05/02 05:16:42;;;;;;;82.25;42.78;;;5.00;99.90;;;;;;5068929;28;20053;-73
2021/05/02 05:19:08;;;;;;;74.40;40.63;;;5.00;99.90;;;;;;5051686;28;20049;-73
2021/05/02 05:21:35;;;;;;;75.93;42.03;;;5.00;99.90;;;;;;5067107;28;20483;-73
2021/05/02 05:24:01;;;;;;;80.47;40.53;;;4.90;99.90;;;;;;5053420;28;20159;-73
2021/05/02 05:26:28;;;;;;;80.82;40.17;;;4.80;99.90;;;;;;5069699;28;20067;-73
2021/05/02 05:28:54;;;;;;;72.03;37.85;;;4.90;99.90;;;;;;5083465;28;20052;-74
2021/05/02 05:31:21;;;;;;;66.80;37.05;;;4.80;99.90;;;;;;5066740;28;20055;-73
2021/05/02 05:33:47;;;;;;;77.03;38.50;;;4.80;99.90;;;;;;5052568;28;20059;-73
2021/05/02 05:36:14;;;;;;;67.45;36.85;;;4.80;99.90;;;;;;5086278;28;20040;-73
2021/05/02 05:38:40;;;;;;;61.80;34.13;;;4.90;99.90;;;;;;5067653;28;20477;-73
2021/05/02 05:41:07;;;;;;;62.45;35.17;;;4.80;99.90;;;;;;5049616;28;20051;-73
2021/05/02 05:43:33;;;;;;;67.75;36.33;;;4.80;99.90;;;;;;5045597;28;20065;-73
2021/05/02 05:45:59;;;;;;;67.85;35.20;;;4.80;99.90;;;;;;5066762;28;20501;-73
2021/05/02 05:48:26;;;;;;;65.70;37.88;;;4.80;99.90;;;;;;5063682;28;20075;-73
2021/05/02 05:50:53;;;;;;;66.57;37.42;;;4.80;99.90;;;;;;5071766;28;20048;-73
2021/05/02 05:53:20;;;;;;;56.03;31.20;;;4.80;99.90;;;;;;5069461;28;20063;-73
2021/05/02 05:55:46;;;;;;;63.42;31.80;;;4.80;99.90;;;;;;5051342;28;20047;-73
2021/05/02 05:58:13;;;;;;;54.35;28.85;;;4.80;99.90;;;;;;5056900;28;20328;-73
2021/05/02 06:00:39;;;;;;;50.97;28.30;;;4.80;99.90;;;;;;5067602;28;20064;-73
2021/05/02 06:03:05;;;;;;;50.92;28.92;;;4.80;99.90;;;;;;5060047;28;20145;-73
2021/05/02 06:05:32;;;;;;;45.95;26.88;;;4.90;99.90;;;;;;5087013;28;20321;-73
2021/05/02 06:07:59;;;;;;;49.78;29.50;;;4.90;99.90;;;;;;5070223;28;20070;-73
2021/05/02 06:10:25;;;;;;;47.38;25.77;;;4.90;99.90;;;;;;5064163;28;20330;-73
2021/05/02 06:12:53;;;;;;;43.70;24.70;;;4.90;99.90;;;;;;5048940;28;20135;-73
2021/05/02 06:15:20;;;;;;;52.20;28.45;;;4.90;99.90;;;;;;5047819;28;20055;-73
2021/05/02 06:17:46;;;;;;;46.58;26.33;;;4.80;99.90;;;;;;5031840;28;20573;-73
2021/05/02 06:20:13;;;;;;;46.85;26.42;;;4.80;99.90;;;;;;5066512;28;20080;-73
2021/05/02 06:22:39;;;;;;;39.08;21.88;;;4.90;99.90;;;;;;5064295;28;20048;-73
2021/05/02 06:25:07;;;;;;;38.90;21.55;;;4.90;99.90;;;;;;5065745;28;20404;-73
2021/05/02 06:27:34;;;;;;;40.25;22.98;;;4.90;99.90;;;;;;5066061;28;20129;-73
2021/05/02 06:30:03;;;;;;;36.85;22.40;;;5.00;99.90;;;;;;5060987;28;20088;-73
2021/05/02 06:32:29;;;;;;;45.83;24.48;;;5.00;99.90;;;;;;5062153;28;20048;-73
2021/05/02 06:34:56;;;;;;;37.63;21.02;;;5.00;99.90;;;;;;5065656;28;20110;-73
2021/05/02 06:37:23;;;;;;;34.17;20.40;;;5.00;99.90;;;;;;5046037;28;20044;-73
2021/05/02 06:39:50;;;;;;;42.65;24.98;;;5.00;99.90;;;;;;5051621;28;20103;-73
2021/05/02 06:42:16;;;;;;;38.88;21.25;;;5.00;99.90;;;;;;5067843;28;20045;-73
2021/05/02 06:44:42;;;;;;;38.72;21.73;;;4.90;99.90;;;;;;5048803;28;20135;-73
2021/05/02 06:47:09;;;;;;;40.03;23.70;;;4.80;99.90;;;;;;5048102;28;20107;-74
2021/05/02 06:49:36;;;;;;;43.22;27.25;;;4.90;99.90;;;;;;5067341;28;20337;-73
2021/05/02 06:52:03;;;;;;;39.08;23.92;;;5.00;99.90;;;;;;5049217;28;20076;-74
2021/05/02 06:54:29;;;;;;;45.83;22.98;;;5.00;99.90;;;;;;5066530;28;20056;-73
2021/05/02 06:56:56;;;;;;;42.28;25.92;;;5.00;99.90;;;;;;5058338;28;20058;-74
2021/05/02 06:59:22;;;;;;;40.75;23.10;;;5.10;99.90;;;;;;5076459;28;20396;-74
2021/05/02 07:01:49;;;;;;;42.22;24.63;;;5.10;99.90;;;;;;5044161;28;20119;-74
2021/05/02 07:04:15;;;;;;;42.60;24.60;;;5.10;99.90;;;;;;5066789;28;20053;-74
2021/05/02 07:06:42;;;;;;;48.17;27.52;;;5.10;99.90;;;;;;5060336;28;20060;-74
2021/05/02 07:09:08;;;;;;;46.65;24.70;;;5.20;99.90;;;;;;5074139;28;20067;-74
2021/05/02 07:11:34;;;;;;;48.97;26.92;;;5.10;99.90;;;;;;5060165;28;20044;-73
2021/05/02 07:14:02;;;;;;;41.58;23.77;;;5.10;99.90;;;;;;5073821;28;20582;-74
2021/05/02 07:16:29;;;;;;;47.88;26.58;;;5.10;99.90;;;;;;5065288;28;20062;-74
2021/05/02 07:18:55;;;;;;;43.70;24.92;;;5.10;99.90;;;;;;5051578;28;20048;-73
2021/05/02 07:21:22;;;;;;;38.58;24.33;;;5.10;99.90;;;;;;5038324;28;20504;-73
2021/05/02 07:23:51;;;;;;;37.97;21.75;;;5.20;99.90;;;;;;5048228;28;20049;-74
2021/05/02 07:26:19;;;;;;;40.80;21.00;;;5.30;99.90;;;;;;5036222;28;20528;-74
2021/05/02 07:28:46;;;;;;;37.65;20.95;;;5.40;99.90;;;;;;5065956;28;20113;-73
2021/05/02 07:31:12;;;;;;;38.75;23.13;;;5.40;99.90;;;;;;5054712;28;20052;-74
2021/05/02 07:33:40;;;;;;;33.25;20.80;;;5.50;99.90;;;;;;5043583;28;20058;-74
2021/05/02 07:36:07;;;;;;;41.08;21.45;;;5.50;99.90;;;;;;5023107;28;20310;-73
2021/05/02 07:38:34;;;;;;;41.47;22.50;;;5.60;99.90;;;;;;5052730;28;20071;-74
2021/05/02 07:41:02;;;;;;;34.17;21.42;;;5.60;99.90;;;;;;5033808;28;20493;-74
2021/05/02 07:43:28;;;;;;;36.03;21.40;;;5.50;99.90;;;;;;5042378;28;20062;-73
2021/05/02 07:45:55;;;;;;;37.97;21.95;;;5.40;99.90;;;;;;5031084;28;20036;-74
2021/05/02 07:48:21;;;;;;;31.40;20.63;;;5.50;99.90;;;;;;5053344;28;20139;-74
2021/05/02 07:50:48;;;;;;;30.95;20.55;;;5.60;99.90;;;;;;5060445;28;20792;-74
2021/05/02 07:53:17;;;;;;;40.88;20.88;;;5.50;99.90;;;;;;5025368;28;20367;-74
2021/05/02 07:55:44;;;;;;;34.03;19.98;;;5.60;99.90;;;;;;5062313;28;20040;-73
2021/05/02 07:58:10;;;;;;;28.98;18.33;;;5.70;99.90;;;;;;5051442;28;20051;-73
2021/05/02 08:00:36;;;;;;;31.77;18.45;;;5.80;99.90;;;;;;5065066;28;20052;-73
2021/05/02 08:03:03;;;;;;;26.38;16.83;;;5.90;99.90;;;;;;5046994;28;20127;-74
2021/05/02 08:05:31;;;;;;;24.15;16.17;;;6.00;99.90;;;;;;5079204;28;20052;-73
2021/05/02 08:07:58;;;;;;;27.88;16.98;;;5.80;99.90;;;;;;5026628;28;20430;-74
2021/05/02 08:10:25;;;;;;;21.63;15.15;;;5.80;99.90;;;;;;5061330;28;20160;-73
2021/05/02 08:12:55;;;;;;;25.92;16.52;;;5.80;99.90;;;;;;5051948;28;20131;-73
2021/05/02 08:15:22;;;;;;;25.05;15.43;;;5.80;99.90;;;;;;5037028;28;20037;-73
2021/05/02 08:17:48;;;;;;;27.02;15.63;;;5.80;99.90;;;;;;5019997;28;20139;-73
2021/05/02 08:20:15;;;;;;;27.17;16.20;;;5.70;99.90;;;;;;5029779;28;20040;-73
2021/05/02 08:22:41;;;;;;;23.85;15.05;;;5.80;99.90;;;;;;5043404;28;20040;-73
2021/05/02 08:25:08;;;;;;;24.05;15.15;;;5.90;99.90;;;;;;5055363;28;20128;-73
2021/05/02 08:27:35;;;;;;;25.90;15.48;;;5.90;99.90;;;;;;5064552;28;20051;-73
2021/05/02 08:30:04;;;;;;;25.23;14.27;;;6.00;99.90;;;;;;5046613;28;20067;-74
2021/05/02 08:32:30;;;;;;;18.73;13.38;;;6.10;99.90;;;;;;5063309;28;20113;-73
2021/05/02 08:34:57;;;;;;;23.52;15.00;;;6.20;99.90;;;;;;5063359;28;20155;-73
2021/05/02 08:37:23;;;;;;;20.90;14.27;;;6.30;99.90;;;;;;5045531;28;20568;-72
2021/05/02 08:39:50;;;;;;;22.02;14.23;;;6.40;99.90;;;;;;5058903;28;20473;-75
2021/05/02 08:42:16;;;;;;;15.50;12.07;;;6.40;99.90;;;;;;5044930;28;20051;-75
2021/05/02 08:44:43;;;;;;;20.10;13.23;;;6.30;99.90;;;;;;5027888;28;20171;-75
2021/05/02 08:47:12;;;;;;;24.73;14.57;;;6.30;99.90;;;;;;5046233;28;20044;-74
2021/05/02 08:49:43;;;;;;;17.65;13.32;;;6.20;99.90;;;;;;5064439;28;20769;-73
2021/05/02 08:52:10;;;;;;;19.13;13.40;;;6.40;99.90;;;;;;5045723;28;20135;-73
2021/05/02 08:54:39;;;;;;;18.65;12.73;;;6.60;99.90;;;;;;5046531;28;20110;-72
2021/05/02 08:57:05;;;;;;;18.23;13.63;;;6.60;99.90;;;;;;5061547;28;20091;-73
2021/05/02 08:59:32;;;;;;;19.58;12.38;;;6.70;99.90;;;;;;5016570;28;20076;-73
2021/05/02 09:01:59;;;;;;;17.80;12.23;;;6.60;99.90;;;;;;5048714;28;20139;-73
2021/05/02 09:04:26;;;;;;;16.00;11.30;;;6.60;99.90;;;;;;5045428;28;20048;-73
2021/05/02 09:06:52;;;;;;;15.02;11.23;;;6.50;99.90;;;;;;5064427;28;20389;-72
2021/05/02 09:09:19;;;;;;;18.23;11.10;;;6.30;99.90;;;;;;5065682;28;20048;-74
2021/05/02 09:11:47;;;;;;;16.77;10.95;;;6.10;99.90;;;;;;5032357;28;20040;-73
2021/05/02 09:14:18;;;;;;;12.82;10.32;;;6.00;99.90;;;;;;5032694;28;20182;-74
2021/05/02 09:16:56;;;;;;;11.90;9.02;;;5.90;99.90;;;;;;5073527;28;20669;-75
2021/05/02 09:19:24;;;;;;;18.48;10.93;;;5.70;99.90;;;;;;5040803;28;20040;-74
2021/05/02 09:21:51;;;;;;;20.02;12.02;;;5.60;99.90;;;;;;5033735;28;20048;-74
2021/05/02 09:24:33;;;;;;;26.17;12.55;;;5.60;99.90;;;;;;5043679;28;20065;-74
2021/05/02 09:27:10;;;;;;;25.88;13.95;;;5.60;99.90;;;;;;5038402;28;20045;-73
2021/05/02 09:29:43;;;;;;;30.52;16.35;;;5.60;99.90;;;;;;5041371;28;20059;-73
2021/05/02 09:32:12;;;;;;;28.63;17.40;;;5.70;99.90;;;;;;4993515;28;20379;-73
2021/05/02 09:34:48;;;;;;;24.55;16.98;;;5.70;99.90;;;;;;5045710;28;20418;-74
2021/05/02 09:37:14;;;;;;;29.75;15.55;;;5.80;99.90;;;;;;5062649;28;20495;-74
2021/05/02 09:39:53;;;;;;;27.98;15.80;;;5.90;99.90;;;;;;5076216;28;20052;-74
2021/05/02 09:42:24;;;;;;;25.65;13.50;;;5.90;99.90;;;;;;5071851;28;20447;-74
2021/05/02 09:44:52;;;;;;;31.17;15.13;;;6.00;99.90;;;;;;5031519;28;20052;-74
2021/05/02 09:47:23;;;;;;;21.67;13.32;;;6.20;99.90;;;;;;5043687;28;20132;-74
2021/05/02 09:50:09;;;;;;;24.70;14.52;;;6.50;99.90;;;;;;5048477;28;20044;-73
2021/05/02 09:52:43;;;;;;;25.77;13.80;;;6.60;99.90;;;;;;5068385;28;20508;-74
2021/05/02 09:55:30;;;;;;;15.73;11.55;;;6.70;99.90;;;;;;5079701;28;20055;-74
2021/05/02 09:58:18;;;;;;;19.45;13.07;;;6.60;99.90;;;;;;5059941;28;20148;-74
2021/05/02 10:00:54;;;;;;;20.98;14.60;;;6.60;99.90;;;;;;5074518;28;20239;-74
2021/05/02 10:03:24;;;;;;;19.00;11.88;;;6.70;99.90;;;;;;5079817;28;20299;-74
2021/05/02 10:05:56;;;;;;;17.00;12.20;;;6.70;99.90;;;;;;5080674;28;20056;-74
2021/05/02 10:08:25;;;;;;;23.27;14.38;;;6.70;99.90;;;;;;5091444;28;20138;-73
2021/05/02 10:10:53;;;;;;;23.95;13.15;;;6.70;99.90;;;;;;5067643;28;20290;-74
2021/05/02 10:13:20;;;;;;;17.92;13.13;;;6.60;99.90;;;;;;5068052;28;20465;-74
2021/05/02 10:15:47;;;;;;;20.75;13.10;;;6.50;99.90;;;;;;5093239;28;20049;-74
2021/05/02 10:18:13;;;;;;;25.75;14.07;;;6.50;99.90;;;;;;5066736;28;20040;-74
2021/05/02 10:20:45;;;;;;;21.33;13.60;;;6.60;99.90;;;;;;5098666;28;20032;-74
2021/05/02 10:23:13;;;;;;;20.83;12.75;;;6.70;99.90;;;;;;5090780;28;20062;-73
2021/05/02 10:25:44;;;;;;;21.95;13.10;;;6.80;99.90;;;;;;5083791;28;20224;-73
2021/05/02 10:28:21;;;;;;;19.02;10.80;;;6.90;99.90;;;;;;5061635;28;20048;-73
2021/05/02 10:30:50;;;;;;;19.50;12.73;;;7.10;99.90;;;;;;5051189;28;20056;-73
2021/05/02 10:35:53;;;;;;;14.98;11.50;;;7.30;99.90;;;;;;5079602;27;20360;-74
2021/05/02 10:38:52;;;;;;;17.25;10.02;;;7.50;99.90;;;;;;5082171;28;20087;-74
2021/05/02 10:41:32;;;;;;;13.05;10.65;;;7.40;99.90;;;;;;5079580;28;20135;-74
2021/05/02 10:44:07;;;;;;;16.30;10.75;;;7.30;99.90;;;;;;5079057;28;20147;-73
2021/05/02 10:46:42;;;;;;;;;;;7.10;99.90;;;;;;5061470;28;20051;-73
2021/05/02 10:49:19;;;;;;;11.32;9.23;;;7.00;99.90;;;;;;5061396;28;19924;-74
2021/05/02 10:51:47;;;;;;;12.70;10.68;;;7.00;99.90;;;;;;5080570;28;20056;-73
2021/05/02 10:54:16;;;;;;;14.85;11.30;;;7.00;99.90;;;;;;5079397;28;20048;-74
2021/05/02 10:56:48;;;;;;;12.82;10.48;;;7.10;99.90;;;;;;5075545;28;20618;-74
2021/05/02 10:59:16;;;;;;;13.75;10.20;;;7.20;99.90;;;;;;5058203;28;20059;-74
2021/05/02 11:01:43;;;;;;;10.27;9.15;;;7.40;99.90;;;;;;5078661;28;20070;-75
2021/05/02 11:04:09;;;;;;;14.93;10.90;;;7.50;99.90;;;;;;5079908;28;20502;-74
2021/05/02 11:06:39;;;;;;;14.88;11.68;;;7.70;99.90;;;;;;5079682;28;20236;-74
2021/05/02 11:09:09;;;;;;;14.32;11.52;;;8.00;99.90;;;;;;5077037;28;20587;-75
2021/05/02 11:11:46;;;;;;;15.30;12.02;;;8.20;99.90;;;;;;5074674;28;20393;-75
2021/05/02 11:14:17;;;;;;;13.95;12.57;;;8.40;99.90;;;;;;5077191;28;20166;-72
2021/05/02 11:16:49;;;;;;;11.70;10.10;;;8.80;99.90;;;;;;5060662;28;20576;-73
2021/05/02 11:19:37;;;;;;;12.25;10.85;;;9.10;99.90;;;;;;5074119;28;20581;-73
2021/05/02 11:22:10;;;;;;;12.57;11.30;;;9.30;99.90;;;;;;5079821;28;20496;-74
2021/05/02 11:24:39;;;;;;;11.57;10.60;;;9.20;99.90;;;;;;5079026;28;20131;-73
2021/05/02 11:27:18;;;;;;;10.25;9.45;;;8.90;99.90;;;;;;5080304;28;20135;-73
2021/05/02 11:32:34;;;;;;;9.35;8.52;;;8.10;99.90;;;;;;5077973;28;20382;-74
2021/05/02 11:35:09;;;;;;;8.98;8.27;;;7.80;99.90;;;;;;5079542;28;20056;-74
2021/05/02 11:37:54;;;;;;;8.60;7.78;;;7.70;99.90;;;;;;5058876;28;20560;-74
2021/05/02 11:40:33;;;;;;;9.80;8.85;;;7.80;99.90;;;;;;5061305;28;20059;-73
2021/05/02 11:43:09;;;;;;;9.13;7.82;;;7.90;99.90;;;;;;5079386;28;20131;-71
2021/05/02 11:45:54;;;;;;;9.10;8.27;;;8.00;99.90;;;;;;5074774;28;20120;-75
2021/05/02 11:48:28;;;;;;;;;;;8.30;99.90;;;;;;5061599;28;20380;-74
2021/05/02 11:51:06;;;;;;;8.18;7.40;;;8.40;99.90;;;;;;5066741;28;20384;-75
2021/05/02 11:53:49;;;;;;;8.63;6.88;;;8.60;99.90;;;;;;5069452;28;20044;-74
2021/05/02 11:56:23;;;;;;;12.75;7.90;;;8.70;99.90;;;;;;5066933;28;20043;-73
2021/05/02 11:58:54;;;;;;;7.75;6.95;;;8.70;99.90;;;;;;5048646;28;20347;-75
2021/05/02 12:01:30;;;;;;;7.97;7.18;;;8.90;99.90;;;;;;5048240;28;20134;-74
2021/05/02 12:04:05;;;;;;;6.05;5.55;;;9.20;99.90;;;;;;5065086;28;20082;-74
2021/05/02 12:06:33;;;;;;;;;;;9.50;99.90;;;;;;5066202;28;20409;-73
2021/05/02 12:09:01;;;;;;;7.22;6.82;;;9.40;99.90;;;;;;5063917;28;19928;-73
2021/05/02 12:11:28;;;;;;;7.00;6.50;;;9.30;99.90;;;;;;5059356;28;20392;-74
2021/05/02 12:13:56;;;;;;;7.97;7.28;;;9.10;99.90;;;;;;5064698;28;20044;-73
2021/05/02 12:16:27;;;;;;;7.20;6.60;;;9.00;99.90;;;;;;5063420;28;20150;-74
2021/05/02 12:19:05;;;;;;;7.90;7.20;;;8.90;99.90;;;;;;5067990;28;20572;-74
2021/05/02 12:21:39;;;;;;;7.32;6.60;;;9.10;99.90;;;;;;5063036;28;20301;-73
2021/05/02 12:24:19;;;;;;;7.95;7.00;;;9.30;99.90;;;;;;5065422;28;20049;-73
2021/05/02 12:26:51;;;;;;;8.15;7.05;;;9.50;99.90;;;;;;5057086;28;20036;-74
2021/05/02 12:29:38;;;;;;;8.55;7.78;;;9.60;99.90;;;;;;5064123;28;20067;-73
2021/05/02 12:32:07;;;;;;;8.70;8.00;;;9.50;99.90;;;;;;5064309;28;20151;-73
2021/05/02 12:34:36;;;;;;;8.52;7.82;;;9.80;99.90;;;;;;5064601;28;20045;-74
2021/05/02 12:37:14;;;;;;;11.13;7.78;;;10.20;99.90;;;;;;5065794;28;20501;-74
2021/05/02 12:39:42;;;;;;;8.20;7.60;;;10.20;99.90;;;;;;5065991;28;20048;-73
2021/05/02 12:42:09;;;;;;;7.43;6.80;;;9.90;99.90;;;;;;5065355;28;20265;-74
2021/05/02 12:44:37;;;;;;;8.27;7.57;;;9.80;99.90;;;;;;5066127;28;20048;-74
2021/05/02 12:47:23;;;;;;;8.60;7.97;;;9.40;99.90;;;;;;5061705;28;20052;-74
2021/05/02 12:49:58;;;;;;;8.65;8.05;;;9.10;99.90;;;;;;5062005;28;20041;-73
2021/05/02 12:52:39;;;;;;;9.30;8.45;;;8.70;99.90;;;;;;5065183;28;20055;-74
2021/05/02 12:55:28;;;;;;;9.23;8.38;;;8.70;99.90;;;;;;5065318;28;20080;-73
2021/05/02 12:57:58;;;;;;;9.13;8.32;;;8.80;99.90;;;;;;5063652;28;20151;-74